Littleton, NH (03561)

5:32 PM EST on February 05, 2016 (GMT -0500)
Littleton NH | | Change Station
CLOSE
Current Station
Personal Weather Station
Location: Littleton, NH
Elevation: 1076 ft
Nearby Weather Stations

Elev 1076 ft 44.29 °N, 71.79 °W | Updated 10 minutes ago

Partly Cloudy
Partly Cloudy
25.3 °F
Feels Like 17 °F
N
8.0
Wind Variable Wind from NNW
Gusts 19.0 mph

Today
High -- | Low -- °F
--% Chance of Precip.
Yesterday
High -- | Low -- °F
Precip. -- in
Pressure 30.11 in
Visibility 10.0 miles
Clouds Clear
Windchill 17 °F
Dew Point 13 °F
Humidity 61%
Rainfall 0.00 in
Snow Depth Not available.
7:01 AM 5:01 PM
Waning Crescent, 9% visible
METAR KHIE 052152Z AUTO 31012KT 10SM CLR M04/M12 A3006 RMK AO2 SLP194 T10391122
Pressure 30.11 in
Visibility 10.0 miles
Clouds Clear
Windchill 17 °F
Dew Point 13 °F
Humidity 61%
Rainfall 0.00 in
Snow Depth Not available.
7:01 AM 5:01 PM
Waning Crescent, 9% visible
METAR KHIE 052152Z AUTO 31012KT 10SM CLR M04/M12 A3006 RMK AO2 SLP194 T10391122

10-Day Weather Forecast

Almanac

Astronomy

Feb. 05, 2016 Rise Set
Actual Time
Civil Twilight
Nautical Twilight
Astronomical Twilight
Moon
Length of Visible Light
Length of Day
Tomorrow will be .
, % of the Moon is Illuminated

Today's Extremes

State Highs State Lows

Community

WunderPhotos

Upload Photos

1,890,879 photos uploaded!

WunderBlog® & News

Nearby

Air Quality

  Air Quality AQ Index Pollutant
Not available.

Snow Depth

Station Depth Elevation

Earthquake Activity

City Distance Mag. Time & Date
Minimum magnitude displayed is 2.5.

Coastal Water Temperatures

Place Temperature

Stations

Nearby Weather Stations

Station Location Temp. Windchill Dew Point Humidity Wind Precip. Elev Updated Type
                   

Watches & Warnings

There are currently no watches in effect.